Time;durP1;ratioP1;P1;durP2;ratioP2;P2;SDS_P1;SDS_P2;PMS_P1;PMS_P2;Temp;Humidity;BMP_temperature;BMP_pressure;BME280_temperature;BME280_humidity;BME280_pressure;Samples;Min_cycle;Max_cycle;Signal;HPM_P1;HPM_P2
2021/12/24 00:01:22;;;;;;;23.00;7.40;;;;;;;14.22;100.00;101262.44;6041877;23;20405;-88
2021/12/24 00:03:51;;;;;;;22.77;8.67;;;;;;;14.19;100.00;101269.19;6073383;23;20408;-88
2021/12/24 00:06:19;;;;;;;28.70;9.67;;;;;;;14.18;100.00;101281.22;6105954;23;20441;-88
2021/12/24 00:08:47;;;;;;;22.83;7.60;;;;;;;14.10;100.00;101281.38;6130283;23;20429;-88
2021/12/24 00:11:15;;;;;;;15.80;5.63;;;;;;;14.06;100.00;101280.09;6082446;23;20465;-89
2021/12/24 00:13:48;;;;;;;16.23;6.17;;;;;;;13.96;100.00;101276.88;6083596;23;20429;-88
2021/12/24 00:17:03;;;;;;;12.73;5.23;;;;;;;13.89;100.00;101279.56;6106131;23;20488;-88
2021/12/24 00:35:43;;;;;;;16.97;4.10;;;;;;;13.95;100.00;101283.44;6155592;23;20401;-89
2021/12/24 00:38:12;;;;;;;9.83;3.30;;;;;;;13.89;100.00;101274.09;6105784;23;20414;-88
2021/12/24 00:40:43;;;;;;;11.50;3.90;;;;;;;13.95;100.00;101280.69;6105773;23;20468;-89
2021/12/24 00:43:13;;;;;;;16.10;4.40;;;;;;;13.94;100.00;101276.22;6107434;23;20942;-87
2021/12/24 00:45:42;;;;;;;12.40;4.27;;;;;;;13.97;100.00;101278.56;6081535;23;20457;-89
2021/12/24 00:48:12;;;;;;;13.07;3.87;;;;;;;13.98;100.00;101277.53;6106324;23;20532;-88
2021/12/24 00:50:52;;;;;;;11.70;4.00;;;;;;;14.03;100.00;101284.13;6128854;23;20432;-88
2021/12/24 00:56:02;;;;;;;17.13;5.03;;;;;;;14.04;100.00;101272.06;6132253;23;20477;-88
2021/12/24 00:58:31;;;;;;;18.40;4.50;;;;;;;13.98;100.00;101272.88;6081698;23;20406;-89
2021/12/24 01:00:58;;;;;;;12.83;4.90;;;;;;;14.10;100.00;101278.63;6104907;23;20919;-89
2021/12/24 01:03:26;;;;;;;14.70;5.03;;;;;;;14.07;100.00;101274.38;6106423;23;20406;-89
2021/12/24 01:05:54;;;;;;;17.13;4.80;;;;;;;14.01;100.00;101264.22;6129299;23;20401;-89
2021/12/24 01:08:22;;;;;;;18.20;4.47;;;;;;;14.11;100.00;101280.34;6105774;23;20441;-89
2021/12/24 01:11:01;;;;;;;11.83;4.50;;;;;;;14.12;100.00;101284.78;6129398;23;20408;-88
2021/12/24 01:13:29;;;;;;;17.73;4.23;;;;;;;14.05;100.00;101261.91;6083955;23;20429;-89
2021/12/24 01:16:07;;;;;;;11.97;4.53;;;;;;;14.08;100.00;101264.25;6155162;23;20405;-88
2021/12/24 01:23:49;;;;;;;15.13;4.70;;;;;;;14.11;100.00;101264.69;6130539;23;20407;-89
2021/12/24 01:26:33;;;;;;;11.57;4.03;;;;;;;14.10;100.00;101254.75;6109472;23;20401;-88
2021/12/24 01:40:23;;;;;;;17.23;8.37;;;;;;;14.11;100.00;101264.69;6134917;23;20892;-88
2021/12/24 01:42:50;;;;;;;20.37;6.37;;;;;;;14.10;100.00;101253.91;6085674;23;20404;-89
2021/12/24 01:45:21;;;;;;;14.10;4.40;;;;;;;14.16;100.00;101258.59;6107460;23;20391;-88
2021/12/24 01:47:51;;;;;;;16.43;4.40;;;;;;;14.11;100.00;101250.09;6130615;23;21022;-89
2021/12/24 01:50:19;;;;;;;15.63;3.07;;;;;;;14.15;100.00;101252.25;6131142;23;20468;-88
2021/12/24 01:52:49;;;;;;;16.60;3.43;;;;;;;14.10;100.00;101237.41;6107216;23;20405;-88
2021/12/24 01:55:17;;;;;;;12.47;2.27;;;;;;;14.09;100.00;101219.22;6107430;23;20746;-89
2021/12/24 01:57:45;;;;;;;7.53;2.40;;;;;;;14.13;100.00;101206.75;6106708;23;20432;-89
2021/12/24 02:00:20;;;;;;;22.23;3.93;;;;;;;14.15;100.00;101215.66;6107309;23;20971;-88
2021/12/24 02:02:48;;;;;;;5.03;2.37;;;;;;;14.11;100.00;101217.97;6131273;23;20407;-88
2021/12/24 02:05:16;;;;;;;9.97;3.50;;;;;;;14.08;100.00;101214.78;6131044;23;20409;-89
2021/12/24 02:07:45;;;;;;;31.50;8.87;;;;;;;14.06;100.00;101225.97;6106566;23;20507;-89
2021/12/24 02:10:13;;;;;;;14.30;6.20;;;;;;;14.06;100.00;101225.97;6107133;23;20429;-88
2021/12/24 02:12:41;;;;;;;12.30;4.63;;;;;;;14.02;100.00;101207.38;6107444;23;20437;-88
2021/12/24 02:15:21;;;;;;;13.70;4.63;;;;;;;14.02;100.00;101207.38;6107116;23;20425;-88
2021/12/24 02:28:44;;;;;;;21.37;6.67;;;;;;;13.76;100.00;101169.63;6135034;23;20457;-89
2021/12/24 02:31:17;;;;;;;14.03;6.10;;;;;;;13.76;100.00;101180.59;6106597;23;20748;-88
2021/12/24 02:33:45;;;;;;;15.30;5.73;;;;;;;13.64;100.00;101172.09;6107740;23;20464;-88
2021/12/24 02:36:13;;;;;;;20.80;7.47;;;;;;;13.64;100.00;101179.50;6083102;23;20404;-88
2021/12/24 02:38:41;;;;;;;14.03;6.13;;;;;;;13.60;100.00;101186.44;6106920;23;20761;-88
2021/12/24 02:41:11;;;;;;;9.33;4.07;;;;;;;13.53;100.00;101175.41;6106837;23;20408;-87
2021/12/24 02:43:39;;;;;;;12.00;3.97;;;;;;;13.49;100.00;101182.34;6107023;23;20402;-87
2021/12/24 02:46:11;;;;;;;8.03;3.33;;;;;;;13.48;100.00;101177.91;6082968;23;20404;-88
2021/12/24 02:54:11;;;;;;;6.80;1.70;;;;;;;13.19;100.00;101172.66;6135162;23;20406;-88
2021/12/24 02:56:40;;;;;;;6.63;1.43;;;;;;;13.13;100.00;101174.28;6082498;23;20401;-87
2021/12/24 02:59:14;;;;;;;4.33;1.17;;;;;;;13.06;100.00;101159.69;6106757;23;20401;-89
2021/12/24 03:01:44;;;;;;;6.30;1.27;;;;;;;13.08;100.00;101166.63;6082845;23;20402;-88
2021/12/24 03:04:11;;;;;;;4.90;1.37;;;;;;;13.02;100.00;101170.19;6107180;23;20778;-88
2021/12/24 03:06:46;;;;;;;6.37;1.43;;;;;;;12.97;100.00;101156.22;6130960;23;20468;-87
2021/12/24 03:09:15;;;;;;;2.20;0.70;;;;;;;12.94;100.00;101145.63;6106320;23;20472;-87
2021/12/24 03:11:44;;;;;;;5.20;1.07;;;;;;;12.89;100.00;101141.81;6107185;23;20896;-87
2021/12/24 03:14:11;;;;;;;2.93;0.77;;;;;;;12.84;100.00;101142.41;6130498;23;20440;-88
2021/12/24 03:16:44;;;;;;;6.13;0.93;;;;;;;12.77;100.00;101144.25;6106158;23;20401;-88
2021/12/24 03:19:12;;;;;;;4.63;0.90;;;;;;;12.70;100.00;101121.41;6130088;23;20460;-88
2021/12/24 03:21:52;;;;;;;10.13;1.33;;;;;;;12.74;100.00;101117.19;6106939;23;20398;-88
2021/12/24 03:26:48;;;;;;;8.33;2.47;;;;;;;12.77;100.00;101103.94;6106101;23;20401;-88
2021/12/24 03:29:17;;;;;;;7.67;1.90;;;;;;;12.74;100.00;101100.75;6106590;23;20449;-88
2021/12/24 03:31:45;;;;;;;12.70;7.10;;;;;;;12.71;100.00;101098.41;6130533;23;20409;-89
2021/12/24 03:34:16;;;;;;;9.30;5.33;;;;;;;12.76;100.00;101098.66;6106076;23;20405;-89
2021/12/24 03:36:43;;;;;;;6.20;3.17;;;;;;;12.72;100.00;101108.31;6106756;23;20406;-88
2021/12/24 03:39:13;;;;;;;5.03;2.33;;;;;;;12.68;100.00;101118.88;6130205;23;20417;-87
2021/12/24 03:41:40;;;;;;;5.40;2.30;;;;;;;12.62;100.00;101116.06;6130054;23;20966;-88
2021/12/24 03:44:11;;;;;;;4.33;1.83;;;;;;;12.58;100.00;101122.97;6082983;23;20401;-87
2021/12/24 03:47:08;;;;;;;4.27;2.50;;;;;;;12.58;100.00;101131.19;6107466;23;20456;-87
2021/12/24 03:52:14;;;;;;;4.43;1.93;;;;;;;12.49;100.00;101133.25;6131026;23;20402;-88
2021/12/24 03:54:57;;;;;;;5.97;2.10;;;;;;;12.53;100.00;101128.19;6089027;23;20803;-88
2021/12/24 03:57:35;;;;;;;2.70;1.37;;;;;;;12.49;100.00;101143.38;6132983;23;20962;-88
2021/12/24 04:00:12;;;;;;;3.23;1.57;;;;;;;12.41;100.00;101142.44;6106326;23;20801;-88
2021/12/24 04:02:40;;;;;;;5.83;1.63;;;;;;;12.34;100.00;101132.44;6154612;23;20402;-87
2021/12/24 04:05:08;;;;;;;3.70;1.50;;;;;;;12.34;100.00;101125.06;6106843;23;20449;-88
2021/12/24 04:07:36;;;;;;;4.10;1.63;;;;;;;12.39;100.00;101132.72;6105771;23;20437;-88
2021/12/24 04:10:21;;;;;;;7.33;5.37;;;;;;;12.32;100.00;101127.16;6081994;23;20402;-87
2021/12/24 04:12:48;;;;;;;7.33;5.43;;;;;;;12.30;100.00;101122.94;6112628;23;20404;-87
2021/12/24 04:15:16;;;;;;;5.30;2.97;;;;;;;12.29;100.00;101121.25;6099577;23;20438;-88
2021/12/24 04:17:44;;;;;;;3.00;1.60;;;;;;;12.21;100.00;101126.84;6076744;23;20410;-87
2021/12/24 04:25:30;;;;;;;3.37;1.50;;;;;;;12.04;100.00;101126.25;6126086;23;20897;-87
2021/12/24 04:27:59;;;;;;;2.83;1.30;;;;;;;12.05;100.00;101117.84;6100907;23;20446;-88
2021/12/24 04:30:33;;;;;;;2.23;0.90;;;;;;;12.06;100.00;101114.06;6100367;23;20402;-88
2021/12/24 04:33:08;;;;;;;4.37;1.23;;;;;;;12.02;100.00;101118.22;6078240;23;20397;-87
2021/12/24 04:35:44;;;;;;;3.30;1.47;;;;;;;12.02;100.00;101118.22;6078371;23;20410;-88
2021/12/24 04:38:30;;;;;;;4.40;1.27;;;;;;;12.03;100.00;101111.72;6124210;23;20841;-88
2021/12/24 04:52:51;;;;;;;6.30;2.03;;;;;;;12.07;100.00;101106.69;6103832;23;20402;-88
2021/12/24 05:03:29;;;;;;;4.60;1.00;;;;;;;12.06;100.00;101094.88;6104871;23;20402;-87
2021/12/24 05:08:56;;;;;;;7.97;2.70;;;;;;;12.02;100.00;101085.34;6104588;23;20473;-88
2021/12/24 05:11:24;;;;;;;3.83;2.40;;;;;;;12.07;100.00;101084.78;6126178;23;20471;-87
2021/12/24 05:13:53;;;;;;;11.57;1.93;;;;;;;12.03;100.00;101089.78;6107596;23;20436;-87
2021/12/24 05:16:37;;;;;;;20.10;11.83;;;;;;;12.09;100.00;101096.38;6108201;23;20429;-88
2021/12/24 05:21:42;;;;;;;13.23;4.03;;;;;;;12.10;100.00;101103.56;6109624;23;20918;-87
2021/12/24 05:24:13;;;;;;;40.73;12.50;;;;;;;12.03;100.00;101110.84;6132945;23;20401;-88
2021/12/24 05:26:41;;;;;;;17.47;7.77;;;;;;;12.04;100.00;101115.28;6132246;23;20455;-88
2021/12/24 05:29:09;;;;;;;8.50;3.27;;;;;;;12.10;100.00;101122.75;6107499;23;20473;-88
2021/12/24 05:31:37;;;;;;;5.80;2.33;;;;;;;12.06;100.00;101116.81;6107675;23;20402;-88
2021/12/24 05:34:05;;;;;;;4.27;1.30;;;;;;;12.00;100.00;101116.72;6131782;23;20432;-89
2021/12/24 05:36:36;;;;;;;5.63;1.43;;;;;;;11.97;100.00;101114.38;6108378;23;20405;-89
2021/12/24 05:39:04;;;;;;;4.73;1.37;;;;;;;11.95;100.00;101120.03;6130390;23;20409;-89
2021/12/24 05:41:31;;;;;;;3.67;0.80;;;;;;;11.95;100.00;101124.66;6131901;23;20919;-89
2021/12/24 05:44:02;;;;;;;3.50;1.30;;;;;;;11.91;100.00;101128.84;6155667;23;20401;-87
2021/12/24 05:46:30;;;;;;;4.90;1.20;;;;;;;11.89;100.00;101125.44;6131721;23;20452;-89
2021/12/24 05:49:00;;;;;;;3.30;1.30;;;;;;;11.96;100.00;101131.84;6106431;23;20516;-90
2021/12/24 05:51:27;;;;;;;6.73;2.60;;;;;;;12.00;100.00;101144.97;6157408;23;20482;-88
2021/12/24 05:53:55;;;;;;;5.70;3.10;;;;;;;12.03;100.00;101151.94;6131291;23;20397;-88
2021/12/24 05:56:22;;;;;;;10.93;4.63;;;;;;;12.06;100.00;101157.03;6107046;23;20402;-88
2021/12/24 05:58:50;;;;;;;5.50;1.80;;;;;;;12.03;100.00;101138.25;6107339;23;20405;-88
2021/12/24 06:01:18;;;;;;;2.47;1.20;;;;;;;12.05;100.00;101133.44;6083509;23;20481;-89
2021/12/24 06:03:45;;;;;;;4.20;1.20;;;;;;;12.07;100.00;101131.34;6106920;23;20416;-87
2021/12/24 06:06:13;;;;;;;2.67;1.13;;;;;;;12.09;100.00;101127.38;6106918;23;20401;-87
2021/12/24 06:08:41;;;;;;;6.33;1.30;;;;;;;12.05;100.00;101112.38;6107025;23;20437;-88
2021/12/24 06:11:08;;;;;;;2.40;0.70;;;;;;;11.98;100.00;101110.59;6106915;23;20402;-88
2021/12/24 06:13:37;;;;;;;4.60;1.10;;;;;;;11.99;100.00;101101.31;6130896;23;20402;-88
2021/12/24 06:16:07;;;;;;;2.00;0.77;;;;;;;11.93;100.00;101094.72;6130519;23;20401;-88
2021/12/24 06:18:39;;;;;;;3.43;1.00;;;;;;;11.94;100.00;101103.78;6131383;23;20896;-88
2021/12/24 06:21:07;;;;;;;6.17;1.43;;;;;;;11.88;100.00;101104.59;6132005;23;20404;-88
2021/12/24 06:23:37;;;;;;;4.33;1.10;;;;;;;11.87;100.00;101106.47;6107023;23;20992;-87
2021/12/24 06:26:06;;;;;;;4.23;1.43;;;;;;;11.86;100.00;101112.16;6107518;23;20409;-88
2021/12/24 06:28:36;;;;;;;5.03;2.17;;;;;;;11.84;100.00;101106.00;6083439;23;20503;-88
2021/12/24 06:31:06;;;;;;;4.33;2.47;;;;;;;11.87;100.00;101116.59;6130192;23;20923;-87
2021/12/24 06:33:34;;;;;;;6.47;2.00;;;;;;;11.83;100.00;101120.75;6130474;23;20410;-88
2021/12/24 06:36:03;;;;;;;2.07;1.17;;;;;;;11.77;100.00;101106.78;6107392;23;20406;-88
2021/12/24 06:38:30;;;;;;;7.27;3.63;;;;;;;11.73;100.00;101116.41;6106249;23;20401;-88
2021/12/24 06:40:59;;;;;;;9.50;5.17;;;;;;;11.70;100.00;101114.03;6106927;23;20401;-88
2021/12/24 06:43:28;;;;;;;15.07;5.83;;;;;;;11.67;100.00;101133.59;6130995;23;20401;-88
2021/12/24 06:45:57;;;;;;;5.90;2.30;;;;;;;11.61;100.00;101139.81;6131860;23;20401;-88
2021/12/24 06:48:26;;;;;;;4.73;2.00;;;;;;;11.59;100.00;101152.84;6107101;23;20437;-88
2021/12/24 06:50:55;;;;;;;14.17;7.00;;;;;;;11.53;100.00;101141.84;6155279;23;20440;-88
2021/12/24 06:53:23;;;;;;;5.07;3.23;;;;;;;11.45;100.00;101134.56;6156232;23;20401;-88
2021/12/24 06:55:50;;;;;;;4.63;2.23;;;;;;;11.47;100.00;101151.63;6082912;23;20507;-88
2021/12/24 06:58:18;;;;;;;7.00;2.80;;;;;;;11.38;100.00;101144.56;6106487;23;20406;-89
2021/12/24 07:00:45;;;;;;;6.60;1.80;;;;;;;11.37;100.00;101134.66;6082860;23;20899;-88
2021/12/24 07:03:14;;;;;;;4.40;1.23;;;;;;;11.39;100.00;101157.19;6106037;23;20415;-88
2021/12/24 07:05:43;;;;;;;3.97;1.10;;;;;;;11.31;100.00;101147.22;6131438;23;20468;-88
2021/12/24 07:08:10;;;;;;;3.10;0.90;;;;;;;11.30;100.00;101158.34;6082556;23;20564;-87
2021/12/24 07:10:40;;;;;;;8.10;0.80;;;;;;;11.23;100.00;101151.91;6129544;23;20468;-88
2021/12/24 07:13:07;;;;;;;6.87;0.73;;;;;;;11.16;100.00;101145.53;6130411;23;20408;-87
2021/12/24 07:15:35;;;;;;;4.67;0.73;;;;;;;11.10;100.00;101147.13;6102841;23;20437;-87
2021/12/24 07:18:04;;;;;;;5.60;1.00;;;;;;;11.08;100.00;101128.16;6106816;23;20436;-89
2021/12/24 07:20:32;;;;;;;4.27;1.37;;;;;;;11.18;100.00;101137.94;6106881;23;20713;-88
2021/12/24 07:23:00;;;;;;;1.90;0.70;;;;;;;11.17;100.00;101148.03;6106725;23;20398;-87
2021/12/24 07:25:28;;;;;;;5.63;1.00;;;;;;;11.12;100.00;101144.19;6106326;23;20398;-88
2021/12/24 07:27:56;;;;;;;2.27;0.70;;;;;;;11.06;100.00;101157.56;6106590;23;20470;-88
2021/12/24 07:30:23;;;;;;;61.13;30.23;;;;;;;11.04;100.00;101156.06;6106913;23;20409;-88
2021/12/24 07:32:52;;;;;;;309.70;138.40;;;;;;;11.08;100.00;101155.50;6130287;23;20401;-88
2021/12/24 07:35:19;;;;;;;35.33;15.80;;;;;;;11.06;100.00;101149.38;6154947;23;20404;-88
2021/12/24 07:37:47;;;;;;;7.07;2.97;;;;;;;11.04;100.00;101143.22;6130556;23;20398;-88
2021/12/24 07:40:16;;;;;;;7.57;1.57;;;;;;;10.97;100.00;101142.25;6106184;23;20408;-88
2021/12/24 07:42:44;;;;;;;1.70;1.07;;;;;;;11.02;100.00;101153.50;6106508;23;20402;-88
2021/12/24 07:45:12;;;;;;;3.27;1.60;;;;;;;11.04;100.00;101151.44;6082343;23;20416;-88
2021/12/24 07:47:43;;;;;;;5.50;1.63;;;;;;;11.02;100.00;101141.72;6106184;23;20484;-88
2021/12/24 07:51:56;;;;;;;4.53;1.00;;;;;;;10.97;100.00;101134.06;6107032;23;20468;-87
2021/12/24 07:53:08;;;;;;;2.90;0.70;;;;;;;11.02;100.00;101134.34;6134934;23;20424;-88
2021/12/24 07:55:36;;;;;;;1.63;0.60;;;;;;;11.05;100.00;101136.72;6105661;23;20408;-88
2021/12/24 07:58:04;;;;;;;1.83;0.60;;;;;;;11.02;100.00;101136.25;6105357;23;20402;-87
2021/12/24 08:00:33;;;;;;;2.23;0.60;;;;;;;11.02;100.00;101138.97;6106544;23;20514;-88
2021/12/24 08:03:02;;;;;;;2.13;0.50;;;;;;;11.07;100.00;101148.34;6106607;23;20401;-88
2021/12/24 08:05:31;;;;;;;2.10;0.63;;;;;;;11.07;100.00;101140.13;6083159;23;20456;-89
2021/12/24 08:08:00;;;;;;;3.43;0.80;;;;;;;11.17;100.00;101136.25;6130407;23;20397;-88
2021/12/24 08:10:30;;;;;;;4.07;1.23;;;;;;;11.19;100.00;101123.22;6130440;23;20540;-88
2021/12/24 08:12:58;;;;;;;2.40;0.90;;;;;;;11.22;100.00;101117.38;6105887;23;20398;-89
2021/12/24 08:15:26;;;;;;;4.57;0.80;;;;;;;11.24;100.00;101098.91;6123917;23;20437;-88
2021/12/24 08:17:54;;;;;;;5.50;2.60;;;;;;;11.35;100.00;101114.84;6100434;23;20398;-88
2021/12/24 08:20:24;;;;;;;9.50;4.00;;;;;;;11.36;100.00;101113.78;6101138;23;20402;-88
2021/12/24 08:22:53;;;;;;;5.53;2.50;;;;;;;11.48;100.00;101106.81;6101789;23;20422;-90
2021/12/24 08:25:21;;;;;;;7.47;2.80;;;;;;;11.50;100.00;101102.00;6100345;23;20431;-87
2021/12/24 08:27:49;;;;;;;8.70;3.17;;;;;;;11.59;100.00;101097.25;6101149;23;20481;-88
2021/12/24 08:30:16;;;;;;;6.90;3.87;;;;;;;11.63;100.00;101093.94;6100750;23;20501;-88
2021/12/24 08:32:45;;;;;;;9.10;3.77;;;;;;;11.67;100.00;101083.47;6100283;23;20885;-88
2021/12/24 08:35:16;;;;;;;7.07;3.13;;;;;;;11.74;100.00;101101.63;6123911;23;20486;-88
2021/12/24 08:37:43;;;;;;;11.30;2.40;;;;;;;11.84;100.00;101103.28;6123152;23;20410;-88
2021/12/24 08:40:11;;;;;;;6.93;2.37;;;;;;;11.88;100.00;101108.19;6100073;23;20416;-88
2021/12/24 08:42:39;;;;;;;13.63;5.53;;;;;;;11.96;100.00;101110.78;6076860;23;20473;-88
2021/12/24 08:45:07;;;;;;;12.30;5.10;;;;;;;12.02;100.00;101115.47;6099869;23;20410;-87
2021/12/24 08:47:34;;;;;;;6.87;3.47;;;;;;;12.14;100.00;101115.81;6100392;23;20402;-87
2021/12/24 08:50:05;;;;;;;7.00;3.20;;;;;;;12.30;100.00;101125.69;6099908;23;20449;-87
2021/12/24 08:52:33;;;;;;;10.20;3.10;;;;;;;12.41;100.00;101131.47;6124381;23;20859;-87
2021/12/24 08:55:01;;;;;;;9.17;5.20;;;;;;;12.45;100.00;101120.97;6100682;23;20705;-87
2021/12/24 08:57:29;;;;;;;14.10;4.63;;;;;;;12.49;100.00;101114.06;6076397;23;20916;-87
2021/12/24 08:59:56;;;;;;;9.60;3.67;;;;;;;12.66;100.00;101122.84;6124578;23;20415;-87
2021/12/24 09:02:26;;;;;;;14.00;5.47;;;;;;;12.78;100.00;101127.59;6075300;23;20442;-87
2021/12/24 09:04:54;;;;;;;9.83;4.83;;;;;;;12.89;100.00;101134.44;6126032;23;20402;-87
2021/12/24 09:07:24;;;;;;;11.97;4.83;;;;;;;13.01;100.00;101140.22;6100184;23;20485;-87
2021/12/24 09:09:51;;;;;;;15.37;5.70;;;;;;;13.12;100.00;101147.88;6125338;23;20450;-86
2021/12/24 09:12:19;;;;;;;15.00;4.80;;;;;;;13.20;100.00;101141.44;6076470;23;20728;-87
2021/12/24 09:14:47;;;;;;;32.67;10.37;;;;;;;13.25;100.00;101138.94;6100690;23;20430;-87
2021/12/24 09:17:14;;;;;;;22.40;7.10;;;;;;;13.30;100.00;101129.03;6076879;23;20736;-88
2021/12/24 09:19:47;;;;;;;16.30;7.30;;;;;;;13.37;100.00;101134.56;6100134;23;20399;-87
2021/12/24 09:22:17;;;;;;;26.17;13.50;;;;;;;13.40;100.00;101131.41;6101831;23;20409;-87
2021/12/24 09:24:46;;;;;;;50.60;26.30;;;;;;;13.42;100.00;101132.06;6077251;23;20399;-87
2021/12/24 09:27:14;;;;;;;22.83;8.10;;;;;;;13.45;100.00;101128.91;6076335;23;20411;-88
2021/12/24 09:29:43;;;;;;;20.03;6.80;;;;;;;13.51;100.00;101117.09;6076646;23;20438;-87
2021/12/24 09:32:10;;;;;;;20.00;5.40;;;;;;;13.54;100.00;101119.44;6123589;23;20738;-87
2021/12/24 09:34:38;;;;;;;13.53;5.37;;;;;;;13.66;100.00;101126.03;6099584;23;20406;-87
2021/12/24 09:37:06;;;;;;;17.53;5.03;;;;;;;13.71;100.00;101118.03;6100393;23;20402;-90
2021/12/24 09:39:34;;;;;;;16.20;3.63;;;;;;;13.77;100.00;101122.72;6100096;23;20401;-89
2021/12/24 09:42:03;;;;;;;14.40;3.90;;;;;;;13.82;100.00;101125.69;6076964;23;20485;-89
2021/12/24 09:44:31;;;;;;;23.67;3.57;;;;;;;13.87;100.00;101116.81;6100037;23;20414;-89
2021/12/24 09:47:01;;;;;;;26.57;4.87;;;;;;;13.94;100.00;101111.34;6076447;23;20402;-89
2021/12/24 09:49:29;;;;;;;16.27;3.90;;;;;;;13.97;100.00;101122.78;6123153;23;20452;-88
2021/12/24 09:51:56;;;;;;;11.10;3.90;;;;;;;14.03;100.00;101118.38;6078438;23;20481;-89
2021/12/24 09:54:24;;;;;;;16.50;4.17;;;;;;;14.09;100.00;101120.25;6078276;23;20422;-90
2021/12/24 09:56:53;;;;;;;10.67;4.27;;;;;;;14.14;100.00;101112.25;6101818;23;20398;-88
2021/12/24 09:59:22;;;;;;;11.03;2.97;;;;;;;14.15;100.00;101113.94;6101872;23;20754;-91
2021/12/24 10:01:55;;;;;;;11.27;3.60;;;;;;;14.18;100.00;101103.38;6078649;23;20417;-91
2021/12/24 10:04:27;;;;;;;16.47;9.70;;;;;;;14.25;100.00;101113.53;6102869;23;20406;-91
2021/12/24 10:07:07;;;;;;;12.33;5.40;;;;;;;14.26;100.00;101113.31;6078301;23;20477;-92
2021/12/24 10:09:40;;;;;;;10.20;3.10;;;;;;;14.26;100.00;101116.06;6079543;23;20444;-91
2021/12/24 10:12:18;;;;;;;9.73;2.70;;;;;;;14.34;100.00;101120.53;6016319;23;20397;-92
2021/12/24 10:14:59;;;;;;;5.00;2.47;;;;;;;14.33;100.00;101125.19;6030357;23;20759;-90
2021/12/24 10:17:49;;;;;;;6.17;2.30;;;;;;;14.32;100.00;101115.25;6036165;23;20831;-91
2021/12/24 10:20:26;;;;;;;11.43;2.90;;;;;;;14.35;100.00;101120.31;5969915;23;20731;-91
2021/12/24 10:26:24;;;;;;;7.73;2.80;;;;;;;14.27;100.00;101126.00;6038940;23;20958;-90
2021/12/24 10:29:02;;;;;;;6.30;2.93;;;;;;;14.28;100.00;101130.44;5992956;23;20476;-90
2021/12/24 10:31:33;;;;;;;5.13;2.57;;;;;;;14.29;100.00;101121.16;6108344;23;20784;-90
2021/12/24 10:34:20;;;;;;;5.87;2.90;;;;;;;14.37;100.00;101131.13;6107909;23;20425;-91
2021/12/24 10:36:57;;;;;;;6.17;2.80;;;;;;;14.42;100.00;101129.47;6131704;23;20472;-92
2021/12/24 10:39:44;;;;;;;6.10;2.40;;;;;;;14.47;100.00;101129.66;6107745;23;20753;-91
2021/12/24 10:42:37;;;;;;;8.30;2.53;;;;;;;14.52;100.00;101127.16;6132013;23;20726;-90
2021/12/24 10:45:06;;;;;;;7.47;2.63;;;;;;;14.47;100.00;101102.16;6108189;23;20405;-90
2021/12/24 10:48:19;;;;;;;6.80;3.33;;;;;;;14.70;100.00;101131.16;6132264;23;20410;-92
2021/12/24 10:51:04;;;;;;;11.03;3.70;;;;;;;14.68;100.00;101105.78;6131299;23;20448;-91
2021/12/24 10:57:59;;;;;;;10.90;3.47;;;;;;;14.95;100.00;101120.38;6157921;23;20369;-92
2021/12/24 11:00:39;;;;;;;7.17;3.20;;;;;;;14.85;100.00;101101.53;6131501;23;20414;-90
2021/12/24 11:03:19;;;;;;;9.77;3.87;;;;;;;14.92;100.00;101110.63;6107443;23;20410;-92
2021/12/24 11:06:03;;;;;;;12.10;5.60;;;;;;;15.01;100.00;101119.53;6131976;23;20441;-91
2021/12/24 11:08:32;;;;;;;8.90;3.80;;;;;;;15.03;100.00;101111.88;6131639;23;20412;-90
2021/12/24 11:11:07;;;;;;;15.60;9.47;;;;;;;15.06;100.00;101111.44;6083587;23;20445;-92
2021/12/24 11:13:39;;;;;;;11.03;5.70;;;;;;;15.09;100.00;101094.50;6107992;23;20786;-91
2021/12/24 11:16:09;;;;;;;7.87;4.20;;;;;;;15.26;100.00;101094.88;6129126;23;20441;-90
2021/12/24 11:26:51;;;;;;;11.67;5.20;;;;;;;15.93;100.00;101080.66;6157685;23;20469;-95
2021/12/24 11:29:30;;;;;;;10.53;5.17;;;;;;;16.09;100.00;101082.03;6131439;23;20437;-95
2021/12/24 11:32:14;;;;;;;12.30;5.03;;;;;;;16.13;100.00;101064.00;6131637;23;20410;-94
2021/12/24 11:34:46;;;;;;;10.17;4.50;;;;;;;16.22;100.00;101048.84;6109867;23;20413;-95
2021/12/24 11:37:55;;;;;;;7.73;3.87;;;;;;;16.41;100.00;101066.31;6107218;23;20421;-94
2021/12/24 11:40:57;;;;;;;9.27;3.40;;;;;;;16.55;100.00;101063.22;6131272;23;20401;-94
2021/12/24 11:50:33;;;;;;;14.97;3.27;;;;;;;17.03;100.00;101036.91;6157753;23;20472;-96
2021/12/24 11:53:19;;;;;;;14.70;4.50;;;;;;;17.07;100.00;101038.97;6083762;23;20409;-94
2021/12/24 11:55:48;;;;;;;11.80;3.47;;;;;;;17.14;100.00;101025.91;6083933;23;20415;-95
2021/12/24 11:58:32;;;;;;;8.40;2.70;;;;;;;17.30;100.00;101024.47;6108340;23;20413;-94
2021/12/24 12:01:04;;;;;;;11.90;2.87;;;;;;;17.52;100.00;101053.28;6108132;23;20413;-94
2021/12/24 12:04:03;;;;;;;10.87;1.80;;;;;;;17.57;100.00;101047.91;6131945;23;20415;-94
2021/12/24 12:06:34;;;;;;;9.33;1.57;;;;;;;17.59;100.00;101014.53;6116028;23;20415;-91
2021/12/24 12:09:11;;;;;;;7.63;1.33;;;;;;;17.85;100.00;101036.31;6121515;23;20409;-90
2021/12/24 12:11:44;;;;;;;12.03;1.83;;;;;;;17.97;100.00;101018.91;6133968;23;20399;-92
2021/12/24 12:14:14;;;;;;;10.77;1.93;;;;;;;18.18;100.00;101029.44;6106454;23;20428;-92
2021/12/24 12:16:51;;;;;;;6.60;2.00;;;;;;;18.29;100.00;101031.34;6130327;23;20423;-92
2021/12/24 12:19:47;;;;;;;9.10;1.73;;;;;;;18.37;100.00;101028.25;6131325;23;20409;-93
2021/12/24 12:22:55;;;;;;;6.83;1.13;;;;;;;18.50;100.00;101022.50;6132141;23;20417;-93
2021/12/24 12:25:36;;;;;;;6.23;1.23;;;;;;;18.70;100.00;101011.09;6132007;23;20417;-93
2021/12/24 12:28:07;;;;;;;8.00;3.27;;;;;;;18.85;100.00;101007.88;6109559;23;20983;-92
2021/12/24 12:30:49;;;;;;;11.70;1.67;;;;;;;19.02;100.00;100992.19;6131238;23;20813;-93
2021/12/24 12:37:52;;;;;;;15.50;2.30;;;;;;;19.39;100.00;100992.69;6156523;23;20373;-94
2021/12/24 12:40:52;;;;;;;15.23;1.83;;;;;;;19.50;100.00;100977.13;6131195;23;20409;-93
2021/12/24 12:43:24;;;;;;;7.73;1.53;;;;;;;19.57;100.00;100972.28;6131079;23;20417;-93
2021/12/24 12:46:07;;;;;;;8.33;2.27;;;;;;;19.60;99.02;100966.25;6131588;23;20469;-94
2021/12/24 12:48:49;;;;;;;10.07;2.17;;;;;;;19.61;97.94;100957.69;6130770;23;20631;-93
2021/12/24 12:55:04;;;;;;;10.63;2.10;;;;;;;19.60;97.26;100933.81;6156402;23;20408;-93
2021/12/24 12:57:36;;;;;;;12.83;2.13;;;;;;;19.64;96.79;100939.69;6107074;23;20416;-93
2021/12/24 13:04:13;;;;;;;8.40;1.50;;;;;;;19.73;96.25;100938.19;6155834;23;20679;-91
2021/12/24 13:10:08;;;;;;;9.53;2.27;;;;;;;19.75;95.68;100922.16;6156277;23;20441;-92
2021/12/24 13:13:04;;;;;;;20.43;3.17;;;;;;;19.80;96.06;100916.69;6130657;23;20408;-93
2021/12/24 13:15:44;;;;;;;13.20;1.90;;;;;;;19.76;96.10;100915.50;6130199;23;20437;-93
2021/12/24 13:25:15;;;;;;;19.43;2.30;;;;;;;19.91;94.60;100909.38;6114256;23;20409;-90
2021/12/24 13:27:55;;;;;;;12.93;2.50;;;;;;;19.90;94.55;100894.66;6131468;23;20416;-91
2021/12/24 13:30:27;;;;;;;10.00;1.97;;;;;;;19.82;93.09;100903.38;6107786;23;20443;-86
2021/12/24 13:33:07;;;;;;;19.83;2.33;;;;;;;19.76;93.11;100904.41;6110337;23;20460;-94
2021/12/24 13:39:16;;;;;;;9.93;1.80;;;;;;;19.72;93.87;100883.81;6159251;23;20409;-95
2021/12/24 13:42:07;;;;;;;14.70;2.37;;;;;;;19.71;93.18;100873.81;6133468;23;20444;-91
2021/12/24 13:44:35;;;;;;;13.13;2.50;;;;;;;19.79;93.95;100878.97;6109531;23;20889;-86
2021/12/24 13:47:22;;;;;;;11.37;1.80;;;;;;;19.77;93.73;100864.50;6108320;23;20983;-89
2021/12/24 14:01:17;;;;;;;12.50;2.90;;;;;;;20.14;92.83;100866.75;6158790;23;20441;-95
2021/12/24 14:07:28;;;;;;;13.33;2.30;;;;;;;20.17;93.65;100832.94;6158725;23;20360;-93
2021/12/24 14:18:25;;;;;;;17.53;5.20;;;;;;;20.40;93.60;100848.56;6153243;23;20471;-93